To NAV CANADA Home Page Login to a new session Search on AWWS site Disclaimer Vers la page française équivalente Tips FAQ What's new on the site To the Forecasts and Observations / NOTAM section To "File a Flight Plan" website Publications and other links Update of the User's profile FIC Telephone Numbers My Weather Data Folder Route Weather Data Regional Weather Data Local Weather Data To the Forecasts and Observations / NOTAM section
Request Generated 03/19/2019 at 23:46:16 UTC . Weather information available at that time is displayed.

METAR/TAF

WEMINDJI/QC    

LWIS CYNC 192300Z AUTO 19010G16KT M03/M07 A2992=
LWIS CYNC 192200Z AUTO 19010G18KT 150V220 M02/M09 A2993=
LWIS CYNC 192100Z AUTO 18007G19KT 140V210 M02/M10 A2996=

CYNC - No TAF is issued for this station

Your time UTC time
Weather data provided by Environment Canada and NAV CANADA